Airfield :
LOGIN :

Register | Disclaimer

   EN    FR    IT 

 










Legend :    VFR   Marginal VFR   IFR   Intensive IFR   Very Intensive IFR
Visi :
Ceiling :
>= 8 km
>= 3000ft
5 to 8 km
1000 to 3000 ft
1500m to 5 km
500 to 1000 ft
800 to 1500m
200 to 500 ft
< 800m
< 200 ft
Symbols :   Thunderstorms  Fog  Heavy snow  Heavy precipitations  Wind > 20 kt
SIGMETs :     Misc.  Thunderstorms  Icing  Turbulence  Mountain Waves  Volcanic Ashes






- Airport Elevation : 12 ft
- IATA code : BCN


LEBL - Barcelone

CURRENT METAR :
  • 170200Z 32006KT 9999 BKN031 16/14 Q1018 NOSIG

EXPIRED METARs :
  • 170130Z 31006KT 9999 SCT031 16/14 Q1018 NOSIG
  • 170100Z 29003KT 9999 FEW025 16/13 Q1018 NOSIG
  • 170030Z 36004KT 9999 FEW025 SCT031 17/14 Q1018 NOSIG
  • 170000Z 33005KT 9999 FEW025 BKN030 17/14 Q1018 NOSIG
  • 162330Z 33004KT 9999 FEW025 BKN029 17/14 Q1018 NOSIG

TAF TAF LEBL
Valid from the 17 at 00:00 until the 18 at 00:00 UTC


162300Z 1700/1724 34007KT 9999 FEW030 TX22/1712Z TN14/1706Z
BECMG 1710/1712 15010KT
BECMG 1718/1720 34007KT



MET'MAP, your aeronautical weather chart ! - Copyright ORBIFLY December 2007 - Disclaimer

ORBIFLY MET'MAP TEAM :

Programming & Development : Alexandra Zaïnal
Concept & original design : Baudouin d'Aumeries
Assistance for programming : Marc-Olivier Méhu
Technical & hardware support : Manuel Goepfert

Contact : metmap@orbifly.com




SOURCES & CREDITS :

   NOAA